Time;durP1;ratioP1;P1;durP2;ratioP2;P2;SDS_P1;SDS_P2;PMS_P1;PMS_P2;Temp;Humidity;BMP_temperature;BMP_pressure;BME280_temperature;BME280_humidity;BME280_pressure;Samples;Min_cycle;Max_cycle;Signal;HPM_P1;HPM_P2
2022/07/23 00:01:07;;;;;;;0.00;0.00;;;18.20;99.90;;;;;;5016658;28;20202;-70
2022/07/23 00:03:33;;;;;;;0.00;0.00;;;18.20;99.90;;;;;;5019372;28;20213;-70
2022/07/23 00:06:00;;;;;;;0.00;0.00;;;18.30;99.90;;;;;;5032377;28;20219;-70
2022/07/23 00:08:28;;;;;;;0.00;0.00;;;18.30;99.90;;;;;;5017720;28;20211;-70
2022/07/23 00:10:55;;;;;;;0.00;0.00;;;18.30;99.90;;;;;;5032419;28;20195;-70
2022/07/23 00:13:23;;;;;;;0.00;0.00;;;18.30;99.90;;;;;;5019834;28;20230;-70
2022/07/23 00:15:50;;;;;;;0.00;0.00;;;18.40;99.90;;;;;;5021975;28;20230;-70
2022/07/23 00:18:17;;;;;;;0.00;0.00;;;18.40;99.90;;;;;;5017078;28;20195;-70
2022/07/23 00:20:44;;;;;;;0.00;0.00;;;18.40;99.90;;;;;;5017722;28;20234;-70
2022/07/23 00:23:11;;;;;;;0.00;0.00;;;18.50;99.90;;;;;;5036533;28;20207;-70
2022/07/23 00:25:38;;;;;;;0.00;0.00;;;18.50;99.90;;;;;;5014641;28;20219;-70
2022/07/23 00:28:06;;;;;;;0.00;0.00;;;18.50;99.90;;;;;;5018496;28;20203;-70
2022/07/23 00:30:34;;;;;;;0.00;0.00;;;18.50;99.90;;;;;;5016631;28;20202;-70
2022/07/23 00:33:04;;;;;;;0.00;0.00;;;18.50;99.90;;;;;;5014372;28;20203;-71
2022/07/23 00:35:33;;;;;;;0.00;0.00;;;18.50;99.90;;;;;;5038709;28;20220;-70
2022/07/23 00:38:02;;;;;;;0.00;0.00;;;18.50;99.90;;;;;;5017082;28;20203;-69
2022/07/23 00:40:30;;;;;;;0.00;0.00;;;18.40;99.90;;;;;;5035118;28;20207;-69
2022/07/23 00:42:58;;;;;;;0.00;0.00;;;18.40;99.90;;;;;;5018424;28;20209;-70
2022/07/23 00:45:26;;;;;;;0.00;0.00;;;18.50;99.90;;;;;;5036645;28;20214;-71
2022/07/23 00:47:55;;;;;;;0.00;0.00;;;18.40;99.90;;;;;;5016609;28;20298;-70
2022/07/23 00:50:21;;;;;;;0.00;0.00;;;18.40;99.90;;;;;;5033377;28;20207;-70
2022/07/23 00:52:49;;;;;;;0.00;0.00;;;18.40;99.90;;;;;;5022602;28;20203;-71
2022/07/23 00:55:15;;;;;;;0.00;0.00;;;18.40;99.90;;;;;;5034078;28;20223;-70
2022/07/23 00:57:43;;;;;;;0.00;0.00;;;18.50;99.90;;;;;;5020533;28;20295;-70
2022/07/23 01:00:13;;;;;;;0.00;0.00;;;18.50;99.90;;;;;;5019325;28;20299;-70
2022/07/23 01:02:41;;;;;;;0.00;0.00;;;18.50;99.90;;;;;;5019428;28;20253;-70
2022/07/23 01:05:10;;;;;;;0.00;0.00;;;18.50;99.90;;;;;;5034148;28;20231;-69
2022/07/23 01:07:38;;;;;;;0.00;0.00;;;18.50;99.90;;;;;;5018309;28;20196;-70
2022/07/23 01:10:30;;;;;;;0.00;0.00;;;18.60;99.90;;;;;;5015979;28;20212;-70
2022/07/23 01:12:54;;;;;;;0.00;0.00;;;18.60;99.90;;;;;;5019468;28;20204;-70
2022/07/23 01:15:20;;;;;;;0.00;0.00;;;18.60;99.90;;;;;;5014977;28;20255;-70
2022/07/23 01:17:47;;;;;;;0.00;0.00;;;18.60;99.90;;;;;;5019449;28;20246;-70
2022/07/23 01:20:16;;;;;;;0.00;0.00;;;18.60;99.90;;;;;;5023251;28;20218;-70
2022/07/23 01:22:45;;;;;;;0.00;0.00;;;18.60;99.90;;;;;;5021212;28;20206;-70
2022/07/23 01:25:12;;;;;;;0.00;0.00;;;18.70;99.90;;;;;;5022807;28;20223;-70
2022/07/23 01:27:42;;;;;;;0.00;0.00;;;18.70;99.90;;;;;;5022195;28;20235;-70
2022/07/23 01:30:10;;;;;;;0.00;0.00;;;18.70;99.90;;;;;;5025967;28;20266;-70
2022/07/23 01:32:37;;;;;;;0.00;0.00;;;18.70;99.90;;;;;;5040446;28;20250;-70
2022/07/23 01:35:05;;;;;;;0.00;0.00;;;18.60;99.90;;;;;;5019628;28;20302;-70
2022/07/23 01:37:32;;;;;;;0.00;0.00;;;18.60;99.90;;;;;;5017789;28;20207;-70
2022/07/23 01:40:01;;;;;;;0.00;0.00;;;18.60;99.90;;;;;;5021778;28;20204;-70
2022/07/23 01:42:28;;;;;;;0.00;0.00;;;18.60;99.90;;;;;;5021986;28;20254;-70
2022/07/23 01:44:55;;;;;;;0.00;0.00;;;18.60;99.90;;;;;;5022265;28;20243;-69
2022/07/23 01:47:23;;;;;;;0.00;0.00;;;18.60;99.90;;;;;;5021414;28;20315;-70
2022/07/23 01:49:53;;;;;;;0.00;0.00;;;18.60;99.90;;;;;;5023145;28;20204;-70
2022/07/23 01:52:40;;;;;;;0.00;0.00;;;18.70;99.90;;;;;;5019544;28;20791;-70
2022/07/23 01:55:09;;;;;;;0.00;0.00;;;18.70;99.90;;;;;;5019647;28;20227;-70
2022/07/23 01:57:39;;;;;;;0.00;0.00;;;18.70;99.90;;;;;;5022194;28;20192;-71
2022/07/23 02:00:08;;;;;;;0.00;0.00;;;18.70;99.90;;;;;;5022786;28;20207;-70
2022/07/23 02:02:42;;;;;;;0.00;0.00;;;18.70;99.90;;;;;;5016696;28;20735;-70
2022/07/23 02:05:10;;;;;;;0.00;0.00;;;18.70;99.90;;;;;;5018400;28;20236;-70
2022/07/23 02:07:37;;;;;;;0.00;0.00;;;18.70;99.90;;;;;;5022623;28;20302;-70
2022/07/23 02:10:05;;;;;;;0.00;0.00;;;18.70;99.90;;;;;;5040611;28;20208;-70
2022/07/23 02:12:34;;;;;;;0.00;0.00;;;18.70;99.90;;;;;;5038545;28;20218;-70
2022/07/23 02:15:01;;;;;;;0.00;0.00;;;18.70;99.90;;;;;;5020757;28;20231;-69
2022/07/23 02:17:28;;;;;;;0.00;0.00;;;18.60;99.90;;;;;;5024092;28;20199;-69
2022/07/23 02:19:55;;;;;;;0.00;0.00;;;18.60;99.90;;;;;;5020456;28;20211;-69
2022/07/23 02:22:22;;;;;;;0.00;0.00;;;18.60;99.90;;;;;;5033899;28;20219;-70
2022/07/23 02:24:50;;;;;;;0.00;0.00;;;18.60;99.90;;;;;;5019655;28;20235;-69
2022/07/23 02:27:16;;;;;;;0.00;0.00;;;18.50;99.90;;;;;;5038529;28;20231;-70
2022/07/23 02:29:45;;;;;;;0.00;0.00;;;18.40;99.90;;;;;;5018888;28;20203;-69
2022/07/23 02:32:14;;;;;;;0.00;0.00;;;18.30;99.90;;;;;;5029594;28;20204;-70
2022/07/23 02:34:41;;;;;;;0.00;0.00;;;18.20;99.90;;;;;;5021825;28;20227;-70
2022/07/23 02:37:09;;;;;;;0.00;0.00;;;18.10;99.90;;;;;;5015592;28;20196;-70
2022/07/23 02:39:36;;;;;;;0.00;0.00;;;18.10;99.90;;;;;;5017538;28;20200;-71
2022/07/23 02:42:03;;;;;;;0.00;0.00;;;18.00;99.90;;;;;;5017209;28;20222;-71
2022/07/23 02:44:32;;;;;;;0.00;0.00;;;;;;;;;;5033352;28;20242;-70
2022/07/23 02:47:01;;;;;;;0.00;0.00;;;17.80;99.90;;;;;;5027854;28;20304;-70
2022/07/23 02:49:28;;;;;;;0.00;0.00;;;17.80;99.90;;;;;;5018362;28;20204;-70
2022/07/23 02:51:55;;;;;;;0.00;0.00;;;17.80;99.90;;;;;;5019569;28;20787;-71
2022/07/23 02:54:22;;;;;;;0.00;0.00;;;17.80;99.90;;;;;;5020278;28;20656;-70
2022/07/23 02:56:50;;;;;;;0.00;0.00;;;17.80;99.90;;;;;;5018947;28;20574;-71
2022/07/23 02:59:17;;;;;;;0.00;0.00;;;17.90;99.90;;;;;;5018165;28;20214;-71
2022/07/23 03:01:44;;;;;;;0.00;0.00;;;17.90;99.90;;;;;;5016826;28;20219;-70
2022/07/23 03:04:13;;;;;;;0.00;0.00;;;17.90;99.90;;;;;;5034192;28;20222;-70
2022/07/23 03:06:42;;;;;;;0.00;0.00;;;17.90;99.90;;;;;;5016518;28;20242;-70
2022/07/23 03:09:09;;;;;;;0.00;0.00;;;17.90;99.90;;;;;;5017881;28;20290;-70
2022/07/23 03:11:38;;;;;;;0.00;0.00;;;17.80;99.90;;;;;;5018116;28;20200;-70
2022/07/23 03:14:06;;;;;;;0.00;0.00;;;17.80;99.90;;;;;;5014819;28;20700;-71
2022/07/23 03:16:33;;;;;;;0.00;0.00;;;17.80;99.90;;;;;;5033698;28;20319;-70
2022/07/23 03:19:00;;;;;;;0.00;0.00;;;17.90;99.90;;;;;;5015823;28;20285;-71
2022/07/23 03:21:29;;;;;;;0.00;0.00;;;17.80;99.90;;;;;;5015648;28;20200;-70
2022/07/23 03:23:56;;;;;;;0.00;0.00;;;17.80;99.90;;;;;;5035421;28;20199;-70
2022/07/23 03:26:25;;;;;;;0.00;0.00;;;17.80;99.90;;;;;;5020644;28;20247;-70
2022/07/23 03:28:52;;;;;;;0.00;0.00;;;17.80;99.90;;;;;;5017949;28;20200;-71
2022/07/23 03:31:19;;;;;;;0.00;0.00;;;17.70;99.90;;;;;;5017289;28;20196;-70
2022/07/23 03:33:46;;;;;;;0.00;0.00;;;17.80;99.90;;;;;;5015657;28;20282;-71
2022/07/23 03:36:13;;;;;;;0.00;0.00;;;17.70;99.90;;;;;;5018645;28;20223;-70
2022/07/23 03:38:44;;;;;;;0.00;0.00;;;17.70;99.90;;;;;;5017304;28;20210;-70
2022/07/23 03:41:11;;;;;;;0.00;0.00;;;17.70;99.90;;;;;;5033679;28;20195;-70
2022/07/23 03:43:38;;;;;;;0.00;0.00;;;17.70;99.90;;;;;;5019385;28;20199;-70
2022/07/23 03:46:05;;;;;;;0.00;0.00;;;17.70;99.90;;;;;;5012409;28;20624;-70
2022/07/23 03:48:32;;;;;;;0.00;0.00;;;17.70;99.90;;;;;;5028900;28;20298;-70
2022/07/23 03:50:59;;;;;;;0.00;0.00;;;17.70;99.90;;;;;;5018051;28;20207;-70
2022/07/23 03:53:26;;;;;;;0.00;0.00;;;17.70;99.90;;;;;;5013964;28;20203;-70
2022/07/23 03:55:54;;;;;;;0.00;0.00;;;17.70;99.90;;;;;;5010481;28;20289;-70
2022/07/23 03:58:21;;;;;;;0.00;0.00;;;17.60;99.90;;;;;;5024230;28;20195;-70
2022/07/23 04:00:48;;;;;;;0.00;0.00;;;17.60;99.90;;;;;;5017107;28;20210;-70
2022/07/23 04:03:16;;;;;;;0.00;0.00;;;17.60;99.90;;;;;;5016258;28;20204;-71
2022/07/23 04:05:44;;;;;;;0.00;0.00;;;17.60;99.90;;;;;;5013489;28;20235;-70
2022/07/23 04:08:14;;;;;;;0.00;0.00;;;17.60;99.90;;;;;;5014100;28;20235;-70
2022/07/23 04:10:44;;;;;;;0.00;0.00;;;17.70;99.90;;;;;;5016252;28;20265;-71
2022/07/23 04:13:13;;;;;;;0.00;0.00;;;17.60;99.90;;;;;;5015729;28;20222;-71
2022/07/23 04:15:40;;;;;;;0.00;0.00;;;17.60;99.90;;;;;;5017534;28;20223;-71
2022/07/23 04:18:08;;;;;;;0.00;0.00;;;17.60;99.90;;;;;;5017908;28;20330;-71
2022/07/23 04:20:57;;;;;;;0.00;0.00;;;17.60;99.90;;;;;;5017967;28;20258;-72
2022/07/23 04:23:24;;;;;;;0.00;0.00;;;17.50;99.90;;;;;;5019337;28;20204;-72
2022/07/23 04:25:52;;;;;;;0.00;0.00;;;17.50;99.90;;;;;;5011307;28;20235;-70
2022/07/23 04:28:20;;;;;;;0.00;0.00;;;17.50;99.90;;;;;;5017324;28;20306;-70
2022/07/23 04:30:47;;;;;;;0.00;0.00;;;17.50;99.90;;;;;;5013936;28;20598;-70
2022/07/23 04:33:16;;;;;;;0.00;0.00;;;17.50;99.90;;;;;;5014867;28;20203;-73
2022/07/23 04:35:44;;;;;;;0.00;0.00;;;17.50;99.90;;;;;;5019195;28;20219;-71
2022/07/23 04:38:19;;;;;;;0.00;0.00;;;17.60;99.90;;;;;;5015890;28;20202;-72
2022/07/23 04:40:47;;;;;;;0.00;0.00;;;17.60;99.90;;;;;;5018299;28;20207;-71
2022/07/23 04:43:14;;;;;;;0.00;0.00;;;17.60;99.90;;;;;;5013349;28;20236;-72
2022/07/23 04:45:47;;;;;;;0.00;0.00;;;17.60;99.90;;;;;;5013647;28;20232;-72
2022/07/23 04:48:15;;;;;;;0.00;0.00;;;17.60;99.90;;;;;;5034405;28;20224;-71
2022/07/23 04:50:43;;;;;;;0.00;0.00;;;17.60;99.90;;;;;;5016074;28;20235;-72
2022/07/23 04:53:23;;;;;;;0.00;0.00;;;;;;;;;;5019866;28;20213;-72
2022/07/23 04:55:52;;;;;;;0.00;0.00;;;17.60;99.90;;;;;;5024011;28;20238;-71
2022/07/23 04:58:20;;;;;;;0.00;0.00;;;17.50;99.90;;;;;;5018203;28;20200;-71
2022/07/23 05:00:48;;;;;;;0.00;0.00;;;17.50;99.90;;;;;;5018128;28;20215;-71
2022/07/23 05:03:16;;;;;;;0.00;0.00;;;17.50;99.90;;;;;;5038329;28;20207;-72
2022/07/23 05:05:46;;;;;;;0.00;0.00;;;17.50;99.90;;;;;;5017363;28;20228;-71
2022/07/23 05:08:16;;;;;;;0.00;0.00;;;17.50;99.90;;;;;;5020088;28;20227;-72
2022/07/23 05:10:44;;;;;;;0.00;0.00;;;17.50;99.90;;;;;;5017464;28;20285;-71
2022/07/23 05:13:11;;;;;;;0.00;0.00;;;17.40;99.90;;;;;;5017654;28;20213;-72
2022/07/23 05:15:38;;;;;;;0.00;0.00;;;17.40;99.90;;;;;;5016017;28;20231;-72
2022/07/23 05:18:07;;;;;;;0.00;0.00;;;17.40;99.90;;;;;;5027040;28;20192;-71
2022/07/23 05:20:34;;;;;;;0.00;0.00;;;17.40;99.90;;;;;;5037269;28;20287;-72
2022/07/23 05:23:02;;;;;;;0.00;0.00;;;17.40;99.90;;;;;;5034481;28;20200;-71
2022/07/23 05:25:29;;;;;;;0.00;0.00;;;17.50;99.90;;;;;;5020347;28;20231;-72
2022/07/23 05:27:56;;;;;;;0.00;0.00;;;17.40;99.90;;;;;;5021946;28;20223;-72
2022/07/23 05:30:23;;;;;;;0.00;0.00;;;17.50;99.90;;;;;;5018923;28;20209;-72
2022/07/23 05:32:54;;;;;;;0.00;0.00;;;17.50;99.90;;;;;;5023118;28;20294;-72
2022/07/23 05:35:23;;;;;;;0.00;0.00;;;17.50;99.90;;;;;;5015443;28;20226;-72
2022/07/23 05:38:05;;;;;;;0.00;0.00;;;17.50;99.90;;;;;;5015336;28;20282;-72
2022/07/23 05:40:32;;;;;;;0.00;0.00;;;17.50;99.90;;;;;;5029035;28;20215;-72
2022/07/23 05:43:00;;;;;;;0.00;0.00;;;17.50;99.90;;;;;;5015069;28;20315;-72
2022/07/23 05:45:27;;;;;;;0.00;0.00;;;17.50;99.90;;;;;;5019202;28;20219;-72
2022/07/23 05:47:54;;;;;;;0.00;0.00;;;17.50;99.90;;;;;;5027559;28;20215;-73
2022/07/23 05:50:30;;;;;;;0.00;0.00;;;17.50;99.90;;;;;;5022659;28;20255;-71
2022/07/23 05:53:05;;;;;;;0.00;0.00;;;17.50;99.90;;;;;;5037753;28;20195;-72
2022/07/23 05:55:50;;;;;;;0.00;0.00;;;17.50;99.90;;;;;;5041477;28;20238;-72
2022/07/23 05:58:17;;;;;;;0.00;0.00;;;17.50;99.90;;;;;;5019591;28;20278;-72
2022/07/23 06:00:45;;;;;;;0.00;0.00;;;17.60;99.90;;;;;;5015292;28;20204;-72
2022/07/23 06:03:13;;;;;;;0.00;0.00;;;17.60;99.90;;;;;;5015640;28;20211;-71
2022/07/23 06:05:41;;;;;;;0.00;0.00;;;17.60;99.90;;;;;;5014441;28;20220;-72
2022/07/23 06:08:09;;;;;;;0.00;0.00;;;17.60;99.90;;;;;;5014139;28;20589;-72
2022/07/23 06:10:36;;;;;;;0.00;0.00;;;17.60;99.90;;;;;;5019043;28;20200;-73
2022/07/23 06:13:03;;;;;;;0.00;0.00;;;17.70;99.90;;;;;;5014808;28;20204;-76
2022/07/23 06:15:31;;;;;;;0.00;0.00;;;17.80;99.90;;;;;;5019112;28;20223;-76
2022/07/23 06:17:58;;;;;;;0.00;0.00;;;17.80;99.90;;;;;;5015264;28;20257;-76
2022/07/23 06:20:26;;;;;;;0.00;0.00;;;17.90;99.90;;;;;;5019431;28;20207;-76
2022/07/23 06:22:54;;;;;;;0.00;0.00;;;17.90;99.90;;;;;;5017619;28;20286;-76
2022/07/23 06:25:21;;;;;;;0.00;0.00;;;18.00;99.90;;;;;;5014801;28;20557;-75
2022/07/23 06:27:49;;;;;;;0.00;0.00;;;18.10;99.90;;;;;;5018888;28;20286;-75
2022/07/23 06:30:17;;;;;;;0.00;0.00;;;18.10;99.90;;;;;;5034309;28;20203;-75
2022/07/23 06:32:44;;;;;;;0.00;0.00;;;18.10;99.90;;;;;;5032753;28;20215;-75
2022/07/23 06:35:11;;;;;;;0.00;0.00;;;18.10;99.90;;;;;;5017484;28;20220;-74
2022/07/23 06:37:37;;;;;;;0.00;0.00;;;18.10;99.90;;;;;;5031721;28;20286;-75
2022/07/23 06:40:07;;;;;;;0.00;0.00;;;18.30;99.90;;;;;;5035741;28;20732;-74
2022/07/23 06:42:39;;;;;;;0.00;0.00;;;18.40;99.90;;;;;;5018346;28;20227;-74
2022/07/23 06:45:07;;;;;;;0.00;0.00;;;18.50;99.90;;;;;;5015902;28;20224;-75
2022/07/23 06:47:36;;;;;;;0.00;0.00;;;18.60;99.90;;;;;;5012989;28;20211;-74
2022/07/23 06:50:04;;;;;;;0.00;0.00;;;18.70;99.90;;;;;;5018317;28;20208;-74
2022/07/23 06:52:32;;;;;;;0.00;0.00;;;19.00;99.90;;;;;;5036214;28;20211;-75
2022/07/23 06:54:59;;;;;;;0.00;0.00;;;19.30;99.90;;;;;;5015282;28;20239;-75
2022/07/23 06:57:28;;;;;;;0.00;0.00;;;19.50;99.90;;;;;;5033334;28;20192;-75
2022/07/23 06:59:55;;;;;;;0.00;0.00;;;19.60;99.90;;;;;;5017925;28;20200;-75
2022/07/23 07:02:22;;;;;;;0.00;0.00;;;19.70;99.90;;;;;;5026240;28;20227;-75
2022/07/23 07:04:49;;;;;;;0.00;0.00;;;19.90;99.90;;;;;;5015994;28;20235;-76
2022/07/23 07:07:16;;;;;;;0.00;0.00;;;20.20;99.90;;;;;;5034822;28;20199;-76
2022/07/23 07:09:44;;;;;;;0.00;0.00;;;20.50;99.90;;;;;;5022455;28;20211;-75
2022/07/23 07:12:12;;;;;;;0.00;0.00;;;20.60;99.90;;;;;;5018582;28;20203;-76
2022/07/23 07:14:40;;;;;;;0.00;0.00;;;20.60;99.90;;;;;;5025173;28;20224;-76
2022/07/23 07:17:07;;;;;;;0.00;0.00;;;20.60;99.90;;;;;;5034626;28;20572;-75
2022/07/23 07:19:34;;;;;;;0.00;0.00;;;20.60;99.90;;;;;;5014598;28;20199;-75
2022/07/23 07:22:01;;;;;;;0.00;0.00;;;20.60;99.90;;;;;;5020345;28;20211;-74
2022/07/23 07:24:28;;;;;;;0.00;0.00;;;20.70;99.90;;;;;;5015917;28;20207;-74
2022/07/23 07:26:55;;;;;;;0.00;0.00;;;20.80;99.90;;;;;;5020063;28;20302;-74
2022/07/23 07:29:22;;;;;;;0.00;0.00;;;20.90;99.90;;;;;;5034582;28;20223;-74
2022/07/23 07:31:50;;;;;;;0.00;0.00;;;21.00;99.90;;;;;;5019402;28;20210;-75
2022/07/23 07:34:17;;;;;;;0.00;0.00;;;21.00;99.90;;;;;;5016950;28;20217;-75
2022/07/23 07:36:44;;;;;;;0.00;0.00;;;21.10;99.90;;;;;;5033121;28;20368;-75
2022/07/23 07:39:11;;;;;;;0.00;0.00;;;21.30;99.90;;;;;;5014825;28;20377;-75
2022/07/23 07:41:38;;;;;;;0.00;0.00;;;21.40;99.90;;;;;;5016818;28;20215;-75
2022/07/23 07:44:06;;;;;;;0.00;0.00;;;21.50;99.90;;;;;;5033354;28;20260;-74
2022/07/23 07:46:33;;;;;;;0.00;0.00;;;21.60;99.90;;;;;;5022090;28;20276;-74
2022/07/23 07:49:01;;;;;;;0.00;0.00;;;21.60;99.90;;;;;;5016104;28;20234;-75
2022/07/23 07:51:28;;;;;;;0.00;0.00;;;21.70;99.90;;;;;;5033909;28;20202;-74
2022/07/23 07:53:55;;;;;;;0.00;0.00;;;21.70;99.90;;;;;;5017104;28;20204;-75
2022/07/23 07:56:22;;;;;;;0.00;0.00;;;21.60;99.90;;;;;;5015367;28;20227;-74
2022/07/23 07:58:49;;;;;;;0.00;0.00;;;21.50;99.90;;;;;;5015290;28;20203;-75
2022/07/23 08:01:16;;;;;;;0.00;0.00;;;21.40;99.90;;;;;;5011599;28;20242;-75
2022/07/23 08:03:43;;;;;;;0.00;0.00;;;21.40;99.90;;;;;;5005359;28;20208;-72
2022/07/23 08:06:12;;;;;;;0.00;0.00;;;21.20;99.90;;;;;;5015211;28;20227;-72
2022/07/23 08:08:39;;;;;;;0.00;0.00;;;21.20;99.90;;;;;;5031228;28;20223;-70
2022/07/23 08:11:06;;;;;;;0.00;0.00;;;21.20;99.90;;;;;;5030936;28;20200;-70
2022/07/23 08:13:33;;;;;;;0.00;0.00;;;21.30;99.90;;;;;;5017608;28;20219;-72
2022/07/23 08:16:00;;;;;;;0.00;0.00;;;21.40;99.90;;;;;;5031505;28;20211;-71
2022/07/23 08:18:27;;;;;;;0.00;0.00;;;21.70;99.90;;;;;;5014024;28;20188;-72
2022/07/23 08:20:53;;;;;;;0.00;0.00;;;21.70;99.90;;;;;;5015379;28;20201;-71
2022/07/23 08:23:22;;;;;;;0.00;0.00;;;21.70;99.90;;;;;;5015808;28;20207;-72
2022/07/23 08:25:49;;;;;;;0.00;0.00;;;21.80;99.90;;;;;;5032997;28;20227;-70
2022/07/23 08:28:16;;;;;;;0.00;0.00;;;21.80;99.90;;;;;;5017599;28;20219;-72
2022/07/23 08:30:45;;;;;;;0.00;0.00;;;21.80;99.90;;;;;;5012897;28;20319;-72
2022/07/23 08:33:13;;;;;;;0.00;0.00;;;21.70;99.90;;;;;;5035479;28;20573;-72
2022/07/23 08:35:42;;;;;;;0.00;0.00;;;21.70;99.90;;;;;;5013641;28;20228;-71
2022/07/23 08:38:10;;;;;;;0.00;0.00;;;21.70;99.90;;;;;;5027913;28;20204;-72
2022/07/23 08:40:41;;;;;;;0.00;0.00;;;21.70;99.90;;;;;;5035299;28;20200;-72
2022/07/23 08:43:09;;;;;;;0.00;0.00;;;21.70;99.90;;;;;;5028309;28;20232;-72
2022/07/23 08:45:38;;;;;;;0.00;0.00;;;21.70;99.90;;;;;;5012093;28;20219;-73
2022/07/23 08:48:08;;;;;;;0.00;0.00;;;21.70;99.90;;;;;;5029012;28;20254;-72
2022/07/23 08:50:37;;;;;;;0.00;0.00;;;21.80;99.90;;;;;;5032711;28;20274;-72
2022/07/23 08:53:07;;;;;;;0.00;0.00;;;21.90;99.90;;;;;;5014063;28;20215;-72
2022/07/23 08:55:35;;;;;;;0.00;0.00;;;22.20;99.90;;;;;;5015996;28;20262;-72
2022/07/23 08:58:03;;;;;;;0.00;0.00;;;22.50;99.90;;;;;;5023306;28;20215;-72
2022/07/23 09:00:31;;;;;;;0.00;0.00;;;22.80;99.90;;;;;;5015108;28;20202;-72
2022/07/23 09:02:58;;;;;;;0.00;0.00;;;22.70;99.90;;;;;;5012718;28;20211;-72
2022/07/23 09:05:25;;;;;;;0.00;0.00;;;22.70;99.90;;;;;;5013432;28;20228;-73
2022/07/23 09:08:07;;;;;;;0.00;0.00;;;22.80;99.90;;;;;;5019118;28;20218;-73
2022/07/23 09:10:45;;;;;;;0.00;0.00;;;22.90;99.90;;;;;;5035291;28;20286;-73
2022/07/23 09:13:29;;;;;;;0.00;0.00;;;23.00;99.90;;;;;;5014661;28;20210;-73
2022/07/23 09:15:58;;;;;;;0.00;0.00;;;23.20;99.90;;;;;;5008470;28;20238;-73
2022/07/23 09:18:30;;;;;;;0.00;0.00;;;23.30;99.90;;;;;;5011494;28;20290;-72
2022/07/23 09:21:07;;;;;;;0.00;0.00;;;23.50;99.90;;;;;;5011776;28;20222;-72
2022/07/23 09:23:42;;;;;;;0.00;0.00;;;23.50;99.90;;;;;;5012409;28;20208;-72
2022/07/23 09:26:25;;;;;;;0.00;0.00;;;23.50;99.90;;;;;;5013343;28;20322;-72
2022/07/23 09:28:57;;;;;;;0.00;0.00;;;23.40;99.90;;;;;;5027971;28;20310;-72
2022/07/23 09:31:26;;;;;;;0.00;0.00;;;23.40;99.90;;;;;;5013392;28;20219;-72
2022/07/23 09:34:08;;;;;;;0.00;0.00;;;23.40;99.90;;;;;;5010944;28;20207;-73
2022/07/23 09:36:35;;;;;;;0.00;0.00;;;23.30;99.90;;;;;;5031326;28;20200;-73
2022/07/23 09:39:02;;;;;;;0.00;0.00;;;23.40;99.90;;;;;;5031579;28;20192;-73
2022/07/23 09:41:36;;;;;;;0.00;0.00;;;23.60;99.90;;;;;;5015097;28;20200;-72
2022/07/23 09:44:10;;;;;;;0.00;0.00;;;23.80;99.90;;;;;;5015638;28;20211;-72
2022/07/23 09:46:39;;;;;;;0.00;0.00;;;23.90;99.90;;;;;;5033254;28;20214;-73
2022/07/23 09:49:16;;;;;;;0.00;0.00;;;24.10;99.90;;;;;;5019287;28;20234;-72
2022/07/23 09:51:50;;;;;;;0.00;0.00;;;24.30;99.90;;;;;;5031551;28;20211;-72
2022/07/23 09:54:31;;;;;;;0.00;0.00;;;24.50;99.90;;;;;;5016565;28;20219;-73
2022/07/23 09:57:00;;;;;;;0.00;0.00;;;24.60;99.90;;;;;;5016302;28;20204;-72
2022/07/23 09:59:30;;;;;;;0.00;0.00;;;24.80;99.90;;;;;;5015998;28;20217;-73
2022/07/23 10:01:59;;;;;;;0.00;0.00;;;24.90;99.90;;;;;;5034903;28;20200;-72
2022/07/23 10:04:28;;;;;;;0.00;0.00;;;25.10;99.90;;;;;;5018882;28;20295;-73
2022/07/23 10:07:17;;;;;;;0.00;0.00;;;25.10;99.90;;;;;;5036150;28;20311;-74
2022/07/23 10:10:04;;;;;;;0.00;0.00;;;25.30;99.90;;;;;;5037119;28;20309;-71
2022/07/23 10:13:21;;;;;;;0.00;0.00;;;25.30;99.90;;;;;;5038933;28;20207;-71
2022/07/23 10:15:50;;;;;;;0.00;0.00;;;;;;;;;;5014319;28;20279;-71
2022/07/23 10:18:17;;;;;;;0.00;0.00;;;;;;;;;;5017263;28;20567;-72
2022/07/23 10:20:44;;;;;;;0.00;0.00;;;25.60;99.90;;;;;;5017123;28;20207;-71
2022/07/23 10:23:19;;;;;;;0.00;0.00;;;25.40;99.90;;;;;;5039459;28;20241;-70
2022/07/23 10:25:55;;;;;;;0.00;0.00;;;25.10;99.90;;;;;;5031828;28;20280;-72
2022/07/23 10:28:57;;;;;;;0.00;0.00;;;24.90;99.90;;;;;;5031583;28;20229;-72
2022/07/23 10:31:39;;;;;;;0.00;0.00;;;24.90;99.90;;;;;;5034790;28;20680;-71
2022/07/23 10:34:15;;;;;;;0.00;0.00;;;24.80;99.90;;;;;;5019942;28;20211;-71
2022/07/23 10:36:48;;;;;;;0.00;0.00;;;24.80;99.90;;;;;;5020885;28;20211;-71
2022/07/23 10:39:20;;;;;;;0.00;0.00;;;24.90;99.90;;;;;;5018687;28;20203;-71
2022/07/23 10:41:47;;;;;;;0.00;0.00;;;25.00;99.90;;;;;;5016919;28;20236;-72
2022/07/23 10:44:16;;;;;;;0.00;0.00;;;25.10;99.90;;;;;;5031912;28;20275;-72
2022/07/23 10:47:12;;;;;;;0.00;0.00;;;25.20;99.90;;;;;;5021125;28;20207;-71
2022/07/23 10:49:40;;;;;;;0.00;0.00;;;25.10;99.90;;;;;;5011938;28;20230;-72
2022/07/23 10:52:24;;;;;;;0.00;0.00;;;25.30;99.90;;;;;;5029691;28;20299;-72
2022/07/23 10:54:54;;;;;;;0.00;0.00;;;25.50;99.90;;;;;;5014898;28;20223;-71
2022/07/23 10:57:23;;;;;;;0.00;0.00;;;;;;;;;;5017981;28;20195;-70
2022/07/23 11:00:11;;;;;;;0.00;0.00;;;25.30;99.90;;;;;;5028887;28;20217;-71
2022/07/23 11:02:41;;;;;;;0.00;0.00;;;25.30;99.90;;;;;;5013008;28;20661;-71
2022/07/23 11:05:10;;;;;;;0.00;0.00;;;25.30;99.90;;;;;;5014383;28;20372;-71
2022/07/23 11:07:57;;;;;;;0.00;0.00;;;25.10;99.90;;;;;;5020000;28;20204;-71
2022/07/23 11:10:35;;;;;;;0.00;0.00;;;25.30;99.90;;;;;;5035745;28;20220;-70
2022/07/23 11:13:27;;;;;;;0.00;0.00;;;25.50;99.90;;;;;;5016910;28;20217;-71
2022/07/23 11:16:06;;;;;;;0.00;0.00;;;25.80;99.90;;;;;;5013101;28;20224;-71
2022/07/23 11:19:05;;;;;;;0.00;0.00;;;25.90;99.90;;;;;;5030125;28;20214;-71
2022/07/23 11:21:46;;;;;;;0.00;0.00;;;25.90;99.90;;;;;;5033563;28;20230;-71
2022/07/23 11:24:15;;;;;;;0.00;0.00;;;26.10;99.90;;;;;;5013741;28;20207;-71
2022/07/23 11:26:45;;;;;;;0.00;0.00;;;26.20;99.90;;;;;;5016174;28;20209;-73
2022/07/23 11:29:40;;;;;;;0.00;0.00;;;26.40;99.90;;;;;;5033363;28;20233;-71
2022/07/23 11:32:09;;;;;;;0.00;0.00;;;26.50;99.90;;;;;;5016133;28;20211;-71
2022/07/23 11:34:40;;;;;;;0.00;0.00;;;26.70;99.90;;;;;;5032647;28;20215;-71
2022/07/23 11:37:10;;;;;;;0.00;0.00;;;26.70;99.90;;;;;;5014937;28;20230;-71
2022/07/23 11:39:38;;;;;;;0.00;0.00;;;26.80;99.90;;;;;;5033738;28;20199;-72
2022/07/23 11:42:09;;;;;;;0.00;0.00;;;26.80;99.90;;;;;;5033512;28;20214;-72
2022/07/23 11:44:38;;;;;;;0.00;0.00;;;26.70;99.90;;;;;;5032747;28;20306;-72
2022/07/23 11:47:07;;;;;;;0.00;0.00;;;26.70;99.90;;;;;;5016488;28;20238;-71
2022/07/23 11:49:34;;;;;;;0.00;0.00;;;26.60;99.90;;;;;;5033843;28;20648;-72
2022/07/23 11:52:06;;;;;;;0.00;0.00;;;26.40;99.90;;;;;;5037901;28;20605;-71
2022/07/23 11:54:33;;;;;;;0.00;0.00;;;26.40;99.90;;;;;;5031864;28;20225;-71
2022/07/23 11:57:01;;;;;;;0.00;0.00;;;26.40;99.90;;;;;;5012242;28;20199;-71
2022/07/23 11:59:32;;;;;;;0.00;0.00;;;26.50;99.90;;;;;;5013747;28;20199;-71
2022/07/23 12:02:00;;;;;;;0.00;0.00;;;26.60;99.90;;;;;;5013641;28;20206;-72
2022/07/23 12:04:39;;;;;;;0.00;0.00;;;26.70;99.90;;;;;;5034378;28;20210;-71
2022/07/23 12:07:06;;;;;;;0.00;0.00;;;;;;;;;;5014080;28;20542;-72
2022/07/23 12:09:33;;;;;;;0.00;0.00;;;26.80;99.90;;;;;;5012634;28;20227;-71
2022/07/23 12:12:01;;;;;;;0.00;0.00;;;26.80;99.90;;;;;;5011441;28;20253;-72
2022/07/23 12:14:30;;;;;;;0.00;0.00;;;26.90;99.90;;;;;;5029036;28;20219;-71
2022/07/23 12:17:09;;;;;;;0.00;0.00;;;26.90;99.90;;;;;;5033563;28;20661;-72
2022/07/23 12:19:36;;;;;;;0.00;0.00;;;26.90;99.90;;;;;;5010204;28;20196;-72
2022/07/23 12:22:04;;;;;;;0.00;0.00;;;27.00;99.90;;;;;;5012170;28;20282;-72
2022/07/23 12:24:31;;;;;;;0.00;0.00;;;26.90;99.90;;;;;;5017034;28;20232;-72
2022/07/23 12:27:11;;;;;;;0.00;0.00;;;26.80;99.90;;;;;;5032974;28;20204;-72
2022/07/23 12:29:39;;;;;;;0.00;0.00;;;26.80;99.90;;;;;;5033646;28;20226;-72
2022/07/23 12:32:18;;;;;;;0.00;0.00;;;26.80;99.90;;;;;;5011781;28;20575;-72
2022/07/23 12:34:46;;;;;;;0.00;0.00;;;26.70;99.90;;;;;;5028920;28;20220;-70
2022/07/23 12:37:27;;;;;;;0.00;0.00;;;26.70;99.90;;;;;;5028569;28;20200;-71
2022/07/23 12:39:55;;;;;;;0.00;0.00;;;26.60;99.90;;;;;;5011540;28;20204;-72
2022/07/23 12:42:24;;;;;;;0.00;0.00;;;26.60;99.90;;;;;;5032404;28;20222;-72
2022/07/23 12:45:10;;;;;;;0.00;0.00;;;26.50;99.90;;;;;;5010798;28;20365;-72
2022/07/23 12:48:03;;;;;;;0.00;0.00;;;26.40;99.90;;;;;;5028308;28;20212;-72
2022/07/23 12:50:35;;;;;;;0.00;0.00;;;26.30;99.90;;;;;;5012993;28;20213;-72
2022/07/23 12:53:08;;;;;;;0.00;0.00;;;26.20;99.90;;;;;;5025715;28;20200;-72
2022/07/23 12:55:36;;;;;;;0.00;0.00;;;26.10;99.90;;;;;;5010579;28;20819;-72
2022/07/23 12:58:05;;;;;;;0.00;0.00;;;26.10;99.90;;;;;;5007283;28;20206;-71
2022/07/23 13:00:53;;;;;;;0.00;0.00;;;26.10;99.90;;;;;;5033686;28;20198;-72
2022/07/23 13:03:25;;;;;;;0.00;0.00;;;26.20;99.90;;;;;;5013699;28;20206;-72